• Join FlightAware (Why Join?)
  • Login
  • US Flag 
01:53AM EDT


 

Airport Tracker/Info


-or-


 

Live Flight TrackerFlight Track Log ✈ UAL653 ✈ 21-Jun-2013 ✈ KLAX - KIAD

Flight Track Log - Related Links

Times and Time Zones

All times are in EDT time to prevent confusion due to time zone crossing. See the UAL653 flight status page for this flight to view local times or setup timezone preferences in your user account.

Time Position Orientation Groundspeed Altitude Reporting Facility
EDT Latitude Longitude Course Direction KTS MPH feet Rate Location/Type
04:47PM 33.9289 -118.4486 55° Northeast 184 212 37,000  Level Los Angeles Center
04:49PM 33.9064 -118.5214 250° West 236 272 4,200 -14,700 Descending Los Angeles Center
04:50PM 34.1261 -118.0812 59° Northeast  Level FlightAware Approximate
04:50PM 33.8386 -118.5450 196° South 274 315 6,700  Level Los Angeles Center
04:51PM 34.1913 -117.9508 59° Northeast  Level FlightAware Approximate
04:51PM 33.8269 -118.4633 100° East 290 334 8,800  Level Los Angeles Center
04:52PM 34.2614 -117.8246 51° Northeast  Level FlightAware Approximate
04:52PM 33.9008 -118.4278 22° Northeast 294 338 11,100  Level Los Angeles Center
04:53PM 34.3301 -117.7015 55° Northeast  Level FlightAware Approximate
04:53PM 33.9756 -118.3883 24° Northeast 324 373 12,900  Level Los Angeles Center
04:54PM 34.0203 -118.2800 63° Northeast 359 413 14,600 1,380 Climbing Los Angeles Center
04:55PM 34.0803 -118.1719 56° Northeast 383 441 15,800 1,500 Climbing Los Angeles Center
04:56PM 34.1603 -118.0281 56° Northeast 426 490 17,800 1,680 Climbing Los Angeles Center
04:57PM 34.2297 -117.9047 56° Northeast 440 506 19,400 1,380 Climbing Los Angeles Center
04:58PM 34.2869 -117.8022 56° Northeast 452 520 20,700 1,380 Climbing Los Angeles Center
04:59PM 34.3758 -117.6450 56° Northeast 470 541 22,300 1,440 Climbing Los Angeles Center
05:00PM 34.4550 -117.4994 57° Northeast 488 562 23,800 1,200 Climbing Los Angeles Center
05:02PM 34.5576 -117.2848 59° Northeast  Level FlightAware Approximate
05:02PM 34.6100 -117.2178 59° Northeast 508 585 26,200  Level Los Angeles Center
05:03PM 34.7050 -117.0422 57° Northeast 521 600 27,700 1,500 Climbing Los Angeles Center
05:04PM 34.7867 -116.8961 56° Northeast 523 602 29,400 1,440 Climbing Los Angeles Center
05:05PM 34.8656 -116.7503 57° Northeast 519 597 30,700 1,200 Climbing Los Angeles Center
05:06PM 34.9458 -116.6031 56° Northeast 522 601 31,900 1,140 Climbing Los Angeles Center
05:07PM 35.0411 -116.4717 48° Northeast 521 600 33,100 1,020 Climbing Los Angeles Center
05:08PM 35.1611 -116.3236 45° Northeast 516 594 34,300 1,020 Climbing Los Angeles Center
05:09PM 35.2811 -116.1736 46° Northeast 513 590 35,500 960 Climbing Los Angeles Center
05:10PM 35.3789 -116.0486 46° Northeast 513 590 36,400 660 Climbing Los Angeles Center
05:12PM 35.4797 -115.9247 45° Northeast 513 590 37,000 240 Climbing Los Angeles Center
05:13PM 35.6036 -115.7697 45° Northeast 507 583 37,000  Level Los Angeles Center
05:14PM 35.6822 -115.6681 46° Northeast 512 589 37,000  Level Los Angeles Center
05:15PM 35.7672 -115.4422 65° Northeast 529 609 37,000  Level Los Angeles Center
05:16PM 35.8000 -115.2644 77° East 537 618 37,000  Level Los Angeles Center
05:17PM 35.8306 -115.0908 78° East 526 605 37,000  Level Los Angeles Center
05:18PM 35.8714 -114.9153 74° East 533 613 37,000  Level Los Angeles Center
05:19PM 35.9114 -114.7411 74° East 532 612 37,000  Level Los Angeles Center
05:20PM 35.9439 -114.5997 74° East 535 616 37,000  Level Los Angeles Center
05:21PM 36.0000 -114.3533 74° East 535 616 37,000  Level Los Angeles Center
05:22PM 36.0436 -114.1664 74° East 536 617 37,000  Level Los Angeles Center
05:23PM 36.0814 -114.0014 74° East 535 616 37,000  Level Los Angeles Center
05:24PM 36.1217 -113.8253 74° East 535 616 37,000  Level Los Angeles Center
05:25PM 36.1608 -113.6497 75° East 533 613 37,000  Level Los Angeles Center
05:26PM 36.2058 -113.4381 75° East 531 611 37,000  Level Los Angeles Center
05:27PM 36.2450 -113.2642 74° East 528 608 37,000  Level Los Angeles Center
05:28PM 36.2864 -113.0758 75° East 527 606 37,000  Level Los Angeles Center
05:29PM 36.3244 -112.9011 75° East 526 605 37,000  Level Los Angeles Center
05:30PM 36.3617 -112.7281 75° East 525 604 37,000  Level Los Angeles Center
05:31PM 36.3983 -112.5547 75° East 523 602 37,000  Level Los Angeles Center
05:32PM 36.4350 -112.3811 75° East 523 602 37,000  Level Los Angeles Center
05:33PM 36.4792 -112.1736 75° East 521 600 37,000  Level Los Angeles Center
05:34PM 36.5147 -111.9992 76° East 522 601 37,000  Level Los Angeles Center
05:35PM 36.5442 -111.8606 75° East 524 603 37,000  Level Denver Center
05:36PM 36.5794 -111.6864 76° East 524 603 37,000  Level Denver Center
05:37PM 36.6228 -111.4756 76° East 526 605 37,000  Level Denver Center
05:38PM 36.6572 -111.3003 76° East 524 603 37,000  Level Denver Center
05:40PM 36.6925 -111.1225 76° East 528 608 37,000  Level Denver Center
05:41PM 36.7278 -110.9453 76° East 530 610 37,000  Level Denver Center
05:42PM 36.7619 -110.7681 76° East 528 608 37,000  Level Denver Center
05:43PM 36.8036 -110.5539 76° East 531 611 37,000  Level Denver Center
05:44PM 36.8447 -110.3417 76° East 528 608 37,000  Level Denver Center
05:45PM 36.8800 -110.1525 77° East 528 608 37,000  Level Denver Center
05:46PM 36.9122 -109.9811 77° East 528 608 37,000  Level Denver Center
05:47PM 36.9486 -109.7817 77° East 527 606 37,000  Level Denver Center
05:48PM 36.9806 -109.6097 77° East 528 608 37,000  Level Denver Center
05:49PM 37.0181 -109.4089 77° East 530 610 37,000  Level Denver Center
05:50PM 37.0542 -109.2089 77° East 526 605 37,000  Level Denver Center
05:51PM 37.0914 -109.0081 77° East 526 605 37,000  Level Denver Center
05:53PM 37.1217 -108.8356 78° East 528 608 37,000  Level Denver Center
05:54PM 37.1631 -108.6025 77° East 534 615 37,000  Level Denver Center
05:55PM 37.1933 -108.4272 78° East 534 615 37,000  Level Denver Center
05:56PM 37.2281 -108.2261 78° East 529 609 37,000  Level Denver Center
05:57PM 37.2575 -108.0486 78° East 538 619 37,000  Level Denver Center
05:58PM 37.2931 -107.8461 77° East 533 613 37,000  Level Denver Center
05:59PM 37.3267 -107.6403 78° East 536 617 37,000  Level Denver Center
06:00PM 37.3606 -107.4350 78° East 538 619 37,000  Level Denver Center
06:01PM 37.3858 -107.2889 78° East 536 617 37,000  Level Denver Center
06:02PM 37.4228 -107.0522 79° East 538 619 37,000  Level Denver Center
06:03PM 37.4514 -106.8781 78° East 533 613 37,000  Level Denver Center
06:04PM 37.4833 -106.6736 79° East 532 612 37,000  Level Denver Center
06:05PM 37.5097 -106.4989 79° East 531 611 37,000  Level Denver Center
06:06PM 37.5333 -106.2953 82° East 525 604 37,000  Level Denver Center
06:07PM 37.5339 -106.1164 90° East 530 610 37,000  Level Denver Center
06:08PM 37.5453 -105.9083 86° East 533 613 37,000  Level Denver Center
06:09PM 37.5581 -105.7253 85° East 531 611 37,000  Level Denver Center
06:10PM 37.5875 -105.5503 78° East 531 611 37,000  Level Denver Center
06:11PM 37.6269 -105.3503 76° East 528 608 37,000  Level Denver Center
06:12PM 37.6597 -105.1797 76° East 525 604 37,000  Level Denver Center
06:13PM 37.6981 -104.9806 76° East 522 601 37,000  Level Denver Center
06:14PM 37.7292 -104.8092 77° East 522 601 37,000  Level Denver Center
06:15PM 37.7661 -104.6083 77° East 523 602 37,000  Level Denver Center
06:17PM 37.8008 -104.4361 76° East 527 606 37,000  Level Denver Center
06:18PM 37.8244 -104.2608 80° East 525 604 37,000  Level Denver Center
06:19PM 37.8525 -104.0564 80° East 522 601 37,000  Level Denver Center
06:20PM 37.8825 -103.8844 77° East 518 596 37,000  Level Denver Center
06:21PM 37.9103 -103.6850 80° East 513 590 37,000  Level Denver Center
06:22PM 37.9317 -103.5150 81° East 509 586 37,000  Level Denver Center
06:23PM 37.9558 -103.3222 81° East 497 572 37,000  Level Denver Center
06:24PM 37.9778 -103.1614 80° East 485 558 37,000  Level Denver Center
06:25PM 37.9964 -102.9997 82° East 484 557 37,000  Level Denver Center
06:26PM 38.0192 -102.8142 81° East 479 551 37,000  Level Denver Center
06:27PM 38.0400 -102.6475 81° East 476 548 37,000  Level Denver Center
06:28PM 38.0611 -102.4628 82° East 474 545 37,000  Level Denver Center
06:29PM 38.0794 -102.3047 82° East 473 544 37,000  Level Denver Center
06:30PM 38.0983 -102.1472 81° East 474 545 37,000  Level Denver Center
06:31PM 38.1203 -101.9611 81° East 477 549 37,000  Level Denver Center
06:32PM 38.1350 -101.8272 82° East 480 552 37,000  Level Kansas City Center
06:33PM 38.1569 -101.6381 82° East 483 556 37,000  Level Kansas City Center
06:34PM 38.1772 -101.4722 81° East 490 564 37,000  Level Kansas City Center
06:35PM 38.1981 -101.2800 82° East 491 565 37,000  Level Kansas City Center
06:36PM 38.2153 -101.1167 82° East 488 562 37,000  Level Kansas City Center
06:37PM 38.2358 -100.9258 82° East 484 557 37,000  Level Kansas City Center
06:38PM 38.2525 -100.7614 83° East 486 559 37,000  Level Kansas City Center
06:39PM 38.2711 -100.5717 83° East 484 557 37,000  Level Kansas City Center
06:40PM 38.2872 -100.4067 83° East 486 559 37,000  Level Kansas City Center
06:41PM 38.3031 -100.2425 83° East 486 559 37,000  Level Kansas City Center
06:42PM 38.3228 -100.0511 82° East 487 560 37,000  Level Kansas City Center
06:43PM 38.3389 -99.8894 83° East 483 556 37,000  Level Kansas City Center
06:44PM 38.3564 -99.6967 83° East 487 560 37,000  Level Kansas City Center
06:45PM 38.3725 -99.5342 83° East 484 557 37,000  Level Kansas City Center
06:46PM 38.3867 -99.3728 84° East 485 558 37,000  Level Kansas City Center
06:47PM 38.4047 -99.1667 84° East 487 560 37,000  Level Kansas City Center
06:48PM 38.4203 -98.9953 83° East 486 559 37,000  Level Kansas City Center
06:49PM 38.4361 -98.8225 83° East 489 563 37,000  Level Kansas City Center
06:51PM 38.4511 -98.6492 84° East 491 565 37,000  Level Kansas City Center
06:52PM 38.4661 -98.4756 84° East 490 564 37,000  Level Kansas City Center
06:53PM 38.4808 -98.3025 84° East 488 562 37,000  Level Kansas City Center
06:54PM 38.4964 -98.1283 83° East 490 564 37,000  Level Kansas City Center
06:55PM 38.5131 -97.9194 84° East 490 564 37,000  Level Kansas City Center
06:56PM 38.5264 -97.7444 84° East 491 565 37,000  Level Kansas City Center
06:57PM 38.5392 -97.5700 85° East 492 566 37,000  Level Kansas City Center
06:58PM 38.5531 -97.3942 84° East 494 568 37,000  Level Kansas City Center
06:59PM 38.5661 -97.2200 84° East 493 567 37,000  Level Kansas City Center
07:00PM 38.5792 -97.0439 85° East 496 571 37,000  Level Kansas City Center
07:01PM 38.5911 -96.8692 85° East 494 568 37,000  Level Kansas City Center
07:02PM 38.6053 -96.6608 85° East 492 566 37,000  Level Kansas City Center
07:03PM 38.6164 -96.4944 85° East 491 565 37,000  Level Kansas City Center
07:04PM 38.6286 -96.3003 85° East 491 565 37,000  Level Kansas City Center
07:05PM 38.6392 -96.1350 85° East 488 562 37,000  Level Kansas City Center
07:06PM 38.6519 -95.9408 85° East 492 566 37,000  Level Kansas City Center
07:07PM 38.6617 -95.7744 86° East 492 566 37,000  Level Kansas City Center
07:08PM 38.6717 -95.6072 86° East 494 568 37,000  Level Kansas City Center
07:09PM 38.6836 -95.4108 85° East 498 573 37,000  Level Kansas City Center
07:10PM 38.6933 -95.2439 86° East 496 571 37,000  Level Kansas City Center
07:11PM 38.7031 -95.0481 86° East 496 571 37,000  Level Kansas City Center
07:12PM 38.7133 -94.8833 85° East 490 564 37,000  Level Kansas City Center
07:13PM 38.7236 -94.6908 86° East 487 560 37,000  Level Kansas City Center
07:14PM 38.7319 -94.5275 86° East 484 557 37,000  Level Kansas City Center
07:15PM 38.7406 -94.3364 87° East 483 556 37,000  Level Kansas City Center
07:16PM 38.7483 -94.1753 86° East 477 549 37,000  Level Kansas City Center
07:17PM 38.7564 -93.9861 87° East 476 548 37,000  Level Kansas City Center
07:18PM 38.7628 -93.8269 87° East 471 542 37,000  Level Kansas City Center
07:19PM 38.7725 -93.6428 86° East 465 535 37,000  Level Kansas City Center
07:20PM 38.7786 -93.4806 87° East 460 529 37,000  Level Kansas City Center
07:22PM 38.7867 -93.3169 86° East 458 527 37,000  Level Kansas City Center
07:23PM 38.7922 -93.1550 87° East 455 524 37,000  Level Kansas City Center
07:24PM 38.7983 -92.9933 87° East 452 520 37,000  Level Kansas City Center
07:25PM 38.8044 -92.8014 88° East 449 517 37,000  Level Kansas City Center
07:26PM 38.8100 -92.6386 87° East 452 520 37,000 120 Level Kansas City Center
07:27PM 38.8150 -92.4756 88° East 454 522 37,300 960 Climbing Kansas City Center
07:28PM 38.8197 -92.3178 88° East 451 519 39,000 780 Climbing Kansas City Center
07:29PM 38.8239 -92.1717 88° East 435 501 39,000  Level Kansas City Center
07:30PM 38.8286 -92.0269 88° East 421 484 39,000  Level Kansas City Center
07:31PM 38.8333 -91.8769 88° East 417 480 39,000  Level Kansas City Center
07:32PM 38.8369 -91.7033 88° East 418 481 39,000  Level Kansas City Center
07:33PM 38.8389 -91.5542 89° East 419 482 39,000  Level Kansas City Center
07:34PM 38.8428 -91.4039 88° East 421 484 39,000  Level Kansas City Center
07:35PM 38.8450 -91.2533 89° East 423 487 39,000  Level Kansas City Center
07:36PM 38.8483 -91.1028 88° East 423 487 39,000  Level Kansas City Center
07:37PM 38.8528 -90.9531 88° East 422 486 39,000  Level Kansas City Center
07:38PM 38.8575 -90.7742 88° East 418 481 39,000  Level Kansas City Center
07:39PM 38.8614 -90.6189 88° East 414 476 39,000  Level Kansas City Center
07:40PM 38.8647 -90.4708 88° East 414 476 39,000  Level Kansas City Center
07:41PM 38.8600 -90.3217 92° East 417 480 39,000  Level Kansas City Center
07:42PM 38.8564 -90.1742 92° East 414 476 39,000  Level Kansas City Center
07:43PM 38.8558 -90.0247 90° East 416 479 39,000  Level Kansas City Center
07:44PM 38.8544 -89.8667 91° East 441 507 39,000  Level Kansas City Center
07:45PM 38.8528 -89.7153 91° East 429 494 39,000  Level Kansas City Center
07:46PM 38.8506 -89.5367 91° East 426 490 39,000  Level Kansas City Center
07:47PM 38.8467 -89.3711 92° East 429 494 39,000  Level Kansas City Center
07:48PM 38.8428 -89.2206 92° East 424 488 39,000  Level Kansas City Center
07:49PM 38.8258 -89.0753 98° East 413 475 39,000  Level Kansas City Center
07:50PM 38.7844 -88.9475 113° Southeast 410 472 39,000  Level Kansas City Center
07:52PM 38.7400 -88.8133 113° Southeast 409 471 39,000  Level Kansas City Center
07:53PM 38.6936 -88.6772 114° Southeast 416 479 39,000  Level Kansas City Center
07:54PM 38.6419 -88.5292 114° Southeast 415 478 39,000  Level Kansas City Center
07:55PM 38.5931 -88.3925 115° Southeast 420 483 39,000  Level Kansas City Center
07:56PM 38.5339 -88.2286 115° Southeast 422 486 39,000  Level Kansas City Center
07:57PM 38.4844 -88.0919 115° Southeast 422 486 39,000  Level Kansas City Center
07:58PM 38.4325 -87.9572 116° Southeast 422 486 39,000  Level Kansas City Center
07:59PM 38.3800 -87.8189 116° Southeast 430 495 39,000  Level Kansas City Center
08:00PM 38.3306 -87.6825 115° Southeast 426 490 39,000  Level Kansas City Center
08:01PM 38.3239 -87.5339 93° East 414 476 39,000  Level Kansas City Center
08:02PM 38.3306 -87.2975 88° East 417 480 39,000  Level Indianapolis Center
08:03PM 38.3331 -87.1581 89° East 418 481 39,000  Level Indianapolis Center
08:04PM 38.3136 -87.0086 99° East 427 491 39,000  Level Indianapolis Center
08:05PM 38.3144 -86.8328 90° East 427 491 39,000  Level Indianapolis Center
08:06PM 38.3172 -86.6861 89° East 417 480 39,000  Level Indianapolis Center
08:07PM 38.3214 -86.5414 88° East 411 473 39,000  Level Indianapolis Center
08:09PM 38.3264 -86.3964 87° East 409 471 39,000  Level Indianapolis Center
08:10PM 38.3294 -86.2514 88° East 409 471 39,000  Level Indianapolis Center
08:11PM 38.3331 -86.1061 88° East 409 471 39,000  Level Indianapolis Center
08:12PM 38.3367 -85.9603 88° East 411 473 39,000  Level Indianapolis Center
08:13PM 38.3406 -85.7881 88° East 406 467 39,000  Level Indianapolis Center
08:14PM 38.3444 -85.6447 88° East 406 467 39,000  Level Indianapolis Center
08:15PM 38.3464 -85.4981 89° East 411 473 39,000  Level Indianapolis Center
08:16PM 38.3497 -85.3522 88° East 411 473 39,000  Level Indianapolis Center
08:17PM 38.3531 -85.1975 88° East 412 474 39,000  Level Indianapolis Center
08:18PM 38.3539 -85.0517 90° East 412 474 39,000  Level Indianapolis Center
08:19PM 38.3553 -84.9056 89° East 412 474 39,000  Level Indianapolis Center
08:20PM 38.3567 -84.7606 89° East 410 472 39,000  Level Indianapolis Center
08:21PM 38.3586 -84.5917 89° East 412 474 39,000  Level Indianapolis Center
08:22PM 38.3589 -84.4464 90° East 411 473 39,000  Level Indianapolis Center
08:23PM 38.3586 -84.2986 90° East 416 479 39,000 -60 Level Indianapolis Center
08:24PM 38.3600 -84.1497 89° East 419 482 38,900  Descending Indianapolis Center
08:25PM 38.3622 -84.0014 89° East 419 482 39,000  Climbing Indianapolis Center
08:26PM 38.3608 -83.8558 91° East 413 475 39,000  Level Indianapolis Center
08:27PM 38.3619 -83.6869 89° East 411 473 39,000  Level Indianapolis Center
08:28PM 38.3631 -83.5464 89° East 401 461 39,000  Level Indianapolis Center
08:29PM 38.3636 -83.4078 90° East 393 452 39,000  Level Indianapolis Center
08:30PM 38.3633 -83.2664 90° East 398 458 39,000  Level Indianapolis Center
08:31PM 38.3631 -83.1231 90° East 404 465 39,000  Level Indianapolis Center
08:32PM 38.3625 -82.9775 90° East 410 472 39,000 -300 Level Indianapolis Center
08:33PM 38.3617 -82.8319 90° East 410 472 38,500 -960 Descending Indianapolis Center
08:34PM 38.3603 -82.6672 91° East 401 461 37,100 -1,260 Descending Indianapolis Center
08:35PM 38.3592 -82.5233 91° East 404 465 36,000 -1,020 Descending Indianapolis Center
08:36PM 38.3578 -82.3806 91° East 406 467 35,000 -540 Descending Indianapolis Center
08:37PM 38.3561 -82.2347 91° East 411 473 35,000  Level Indianapolis Center
08:38PM 38.3556 -82.0914 90° East 409 471 35,000  Level Indianapolis Center
08:39PM 38.3533 -81.9458 91° East 412 474 35,000 -180 Level Indianapolis Center
08:40PM 38.3519 -81.7997 91° East 416 479 34,700 -840 Descending Indianapolis Center
08:41PM 38.3467 -81.6247 92° East 417 480 33,400 -840 Descending Indianapolis Center
08:42PM 38.3403 -81.4789 93° East 419 482 33,000 -240 Descending Indianapolis Center
08:44PM 38.3344 -81.3289 93° East 427 491 33,000  Level Indianapolis Center
08:45PM 38.3292 -81.1814 93° East 421 484 33,000  Level Indianapolis Center
08:46PM 38.3244 -81.0325 92° East 423 487 33,000  Level Indianapolis Center
08:47PM 38.3183 -80.8850 93° East 422 486 33,000  Level Indianapolis Center
08:48PM 38.3128 -80.7058 92° East 426 490 33,000  Level Indianapolis Center
08:49PM 38.3206 -80.5569 86° East 421 484 33,000  Level Indianapolis Center
08:50PM 38.3478 -80.4119 76° East 420 483 33,000  Level Indianapolis Center
08:51PM 38.3744 -80.2692 77° East 422 486 33,000  Level Indianapolis Center
08:52PM 38.4006 -80.1267 77° East 424 488 33,000  Level Indianapolis Center
08:53PM 38.4292 -79.9567 78° East 421 484 33,000 -540 Level Indianapolis Center
08:54PM 38.4544 -79.8156 77° East 420 483 32,000 -2,040 Descending Indianapolis Center
08:55PM 38.4811 -79.6789 76° East 426 490 28,800 -2,880 Descending Washington Center
08:56PM 38.5092 -79.5292 76° East 426 490 26,100 -2,640 Descending Washington Center
08:57PM 38.5347 -79.3792 78° East 426 490 23,600 -1,920 Descending Washington Center
08:58PM 38.5581 -79.2317 79° East 426 490 22,400 -1,320 Descending Washington Center
08:59PM 38.5833 -79.0869 77° East 426 490 21,000 -1,680 Descending Washington Center
09:00PM 38.6058 -78.9497 78° East 418 481 19,100 -2,040 Descending Washington Center
09:01PM 38.6283 -78.8153 78° East 395 455 17,000 -2,040 Descending Washington Center
09:02PM 38.6589 -78.6889 73° East 380 437 15,100 -2,040 Descending Washington Center
09:03PM 38.6869 -78.5653 74° East 367 422 13,000 -1,620 Descending Washington Center
09:04PM 38.7147 -78.4467 73° East 353 406 11,900 -1,020 Descending Washington Center
09:05PM 38.7525 -78.3494 63° Northeast 326 375 11,000 -1,140 Descending Washington Center
09:06PM 38.8086 -78.2717 47° Northeast 299 344 9,700 -1,140 Descending Washington Center
09:07PM 38.8581 -78.1936 51° Northeast 289 333 8,800 -1,140 Descending Washington Center
09:08PM 38.8811 -78.0983 73° East 278 320 7,500 -1,140 Descending Washington Center
09:09PM 38.9058 -78.0058 71° East 272 313 6,500 -780 Descending Washington Center
09:10PM 38.9264 -77.9158 74° East 265 305 6,000 -300 Descending Washington Center
09:11PM 38.9511 -77.8258 71° East 264 304 6,000  Level Washington Center
09:12PM 38.9614 -77.7219 83° East 264 304 6,000  Level Washington Center
09:13PM 38.9833 -77.6000 77° East 248 285 6,000 -480 Level Potomac TRACON
09:14PM 39.0500 -77.5667 21° North 224 258 4,900 -1,260 Descending Potomac TRACON
09:15PM 39.1000 -77.5667 360° North 239 275 3,500 -1,440 Descending Potomac TRACON